X  Tanca Dades meteorològiques de l'aviació METAR        LGTS Thessaloniki Macedonia International
Temperatura
14°C Temperatura
13°C Rosada
94% Humitat



Vent
1 M/S
3 MPH
6 KM/H
3 NUS



-1°
VRB
Condicions actuals

Mostly Cloudy with Drizzle Força ennuvolat , Pluja
Pressió 1016 (hPa) - 30 (inHg)
Visibilitat 6 (milla) - 10 (km)
Aeroport
Codi aeroport LGTS

Ubicació: Thessaloniki Macedonia International
Distància: 85 (km)

Metar:
METAR LGTS 251150Z VRB03KT 9999 -DZ FEW010 BKN025 14/13 Q1016 NOSIG

Temps: 25-02-2024 13:50 EET